createdAt,value
2019-02-18T00:00:45.426Z,47.87
2019-02-18T00:03:12.977Z,50.63
2019-02-18T00:05:40.745Z,52.63
2019-02-18T00:08:08.220Z,51.93
2019-02-18T00:10:35.905Z,52.63
2019-02-18T00:13:03.625Z,49.20
2019-02-18T00:15:31.331Z,47.90
2019-02-18T00:17:58.940Z,46.30
2019-02-18T00:20:26.601Z,45.93
2019-02-18T00:22:54.159Z,48.23
2019-02-18T00:25:21.752Z,48.23
2019-02-18T00:27:49.366Z,47.10
2019-02-18T00:30:16.957Z,48.63
2019-02-18T00:32:44.805Z,47.90
2019-02-18T00:35:12.449Z,47.60
2019-02-18T00:37:40.072Z,49.27
2019-02-18T00:40:07.649Z,48.60
2019-02-18T00:42:35.177Z,49.53
2019-02-18T00:45:02.783Z,50.73
2019-02-18T00:47:30.496Z,47.90
2019-02-18T00:49:58.166Z,48.10
2019-02-18T00:52:45.641Z,48.57
2019-02-18T00:55:13.283Z,50.93
2019-02-18T00:57:40.982Z,52.23
2019-02-18T01:00:09.753Z,51.03
2019-02-18T01:02:37.650Z,48.67
2019-02-18T01:05:05.926Z,48.63
2019-02-18T01:07:35.204Z,48.13
2019-02-18T01:10:03.427Z,48.73
2019-02-18T01:12:31.502Z,50.27
2019-02-18T01:14:59.394Z,47.43
2019-02-18T01:17:27.101Z,50.20
2019-02-18T01:19:54.817Z,50.10
2019-02-18T01:22:22.573Z,51.67
2019-02-18T01:24:51.066Z,50.77
2019-02-18T01:27:18.805Z,51.80
2019-02-18T01:29:46.717Z,47.63
2019-02-18T01:32:14.315Z,51.33
2019-02-18T01:34:41.908Z,51.27
2019-02-18T01:37:09.991Z,54.70
2019-02-18T01:39:37.600Z,56.63
2019-02-18T01:42:05.373Z,55.07
2019-02-18T01:44:32.993Z,53.77
2019-02-18T01:47:00.633Z,54.43
2019-02-18T01:49:29.651Z,60.03
2019-02-18T01:51:57.367Z,61.57
2019-02-18T01:54:25.424Z,59.53
2019-02-18T01:56:53.270Z,57.30
2019-02-18T01:59:20.823Z,55.33
2019-02-18T02:01:48.887Z,53.37
2019-02-18T02:04:16.655Z,56.80
2019-02-18T02:06:46.417Z,56.10
2019-02-18T02:09:15.352Z,55.83
2019-02-18T02:11:43.231Z,52.87
2019-02-18T02:14:10.893Z,60.47
2019-02-18T02:16:38.531Z,58.30
2019-02-18T02:19:06.695Z,56.30
2019-02-18T02:21:34.414Z,55.77
2019-02-18T02:24:01.993Z,60.70
2019-02-18T02:26:29.679Z,57.80
2019-02-18T02:28:59.588Z,55.53
2019-02-18T02:31:27.317Z,58.03
2019-02-18T02:33:54.928Z,57.33
2019-02-18T02:36:22.631Z,59.37
2019-02-18T02:38:50.274Z,58.83
2019-02-18T02:41:17.925Z,58.90
2019-02-18T02:43:45.465Z,64.13
2019-02-18T02:46:13.206Z,58.77
2019-02-18T02:48:40.783Z,62.90
2019-02-18T02:51:08.882Z,64.53
2019-02-18T02:53:36.477Z,68.57
2019-02-18T02:56:04.531Z,57.00
2019-02-18T02:58:32.138Z,62.70
2019-02-18T03:00:59.706Z,67.23
2019-02-18T03:03:27.315Z,68.43
2019-02-18T03:05:54.983Z,62.33
2019-02-18T03:08:22.558Z,58.83
2019-02-18T03:10:50.157Z,60.40
2019-02-18T03:13:17.830Z,65.30
2019-02-18T03:15:45.471Z,59.13
2019-02-18T03:18:13.150Z,65.93
2019-02-18T03:20:40.719Z,62.63
2019-02-18T03:23:08.532Z,59.30
2019-02-18T03:25:36.138Z,59.67
2019-02-18T03:28:13.575Z,60.37
2019-02-18T03:31:07.876Z,56.90
2019-02-18T03:33:51.362Z,55.93
2019-02-18T03:36:19.046Z,58.90
2019-02-18T03:38:46.640Z,60.03
2019-02-18T03:41:14.352Z,61.30
2019-02-18T03:43:42.316Z,56.47
2019-02-18T03:46:10.074Z,57.13
2019-02-18T03:48:37.896Z,58.40
2019-02-18T03:51:06.003Z,59.57
2019-02-18T03:53:33.625Z,51.13
2019-02-18T03:56:01.290Z,60.07
2019-02-18T03:58:28.868Z,62.77
2019-02-18T04:00:56.708Z,59.07
2019-02-18T04:03:24.398Z,57.33
2019-02-18T04:05:52.000Z,57.17
2019-02-18T04:08:19.762Z,57.47
2019-02-18T04:10:47.534Z,54.00
2019-02-18T04:13:15.220Z,51.97
2019-02-18T04:15:42.945Z,49.10
2019-02-18T04:18:10.571Z,51.57
2019-02-18T04:20:38.327Z,49.73
2019-02-18T04:23:06.020Z,53.57
2019-02-18T04:25:33.643Z,56.00
2019-02-18T04:28:01.365Z,50.87
2019-02-18T04:30:29.125Z,51.13
2019-02-18T04:32:56.825Z,48.53
2019-02-18T04:35:24.427Z,52.93
2019-02-18T04:37:52.179Z,53.27
2019-02-18T04:40:19.846Z,54.10
2019-02-18T04:42:47.510Z,53.57
2019-02-18T04:45:15.148Z,52.10
2019-02-18T04:47:42.923Z,57.17
2019-02-18T04:50:10.664Z,55.67
2019-02-18T04:52:38.369Z,55.90
2019-02-18T04:55:07.141Z,53.27
2019-02-18T04:57:34.801Z,57.20
2019-02-18T05:00:02.465Z,55.27
2019-02-18T05:02:30.078Z,55.03
2019-02-18T05:04:57.719Z,51.40
2019-02-18T05:07:25.300Z,52.93
2019-02-18T05:09:52.838Z,49.40
2019-02-18T05:12:20.560Z,50.10
2019-02-18T05:14:48.173Z,49.53
2019-02-18T05:17:15.769Z,48.90
2019-02-18T05:19:43.652Z,50.63
2019-02-18T05:22:11.255Z,48.23
2019-02-18T05:24:38.922Z,50.17
2019-02-18T05:27:06.437Z,52.80
2019-02-18T05:29:34.480Z,50.17
2019-02-18T05:32:02.109Z,47.67
2019-02-18T05:34:29.757Z,52.93
2019-02-18T05:36:57.393Z,50.90
2019-02-18T05:39:24.979Z,51.60
2019-02-18T05:41:52.658Z,52.00
2019-02-18T05:44:20.592Z,49.97
2019-02-18T05:47:06.984Z,49.50
2019-02-18T05:49:34.478Z,47.17
2019-02-18T05:52:03.952Z,46.97
2019-02-18T05:54:32.878Z,43.67
2019-02-18T05:57:00.306Z,50.67
2019-02-18T05:59:27.765Z,48.47
2019-02-18T06:01:55.242Z,47.17
2019-02-18T06:04:22.769Z,45.43
2019-02-18T06:06:50.325Z,49.40
2019-02-18T06:09:28.579Z,50.63
2019-02-18T06:11:47.150Z,55.00
2019-02-18T06:14:14.514Z,45.20
2019-02-18T06:16:41.985Z,39.63
2019-02-18T06:19:09.475Z,50.30
2019-02-18T06:21:36.950Z,47.53
2019-02-18T06:24:04.413Z,47.27
2019-02-18T06:26:32.329Z,45.63
2019-02-18T06:28:59.814Z,50.67
2019-02-18T06:31:27.264Z,49.47
2019-02-18T06:33:54.789Z,49.93
2019-02-18T06:36:23.882Z,47.73
2019-02-18T06:38:51.540Z,47.57
2019-02-18T06:41:18.990Z,48.03
2019-02-18T06:43:46.455Z,43.97
2019-02-18T06:46:45.317Z,43.37
2019-02-18T06:49:18.128Z,44.43
2019-02-18T06:51:45.588Z,47.67
2019-02-18T06:54:13.082Z,44.60
2019-02-18T06:56:51.542Z,42.40
2019-02-18T06:59:26.400Z,44.70
2019-02-18T07:01:58.584Z,40.60
2019-02-18T07:04:43.209Z,40.63
2019-02-18T07:07:33.081Z,42.50
2019-02-18T07:10:15.110Z,42.97
2019-02-18T07:12:45.706Z,41.67
2019-02-18T07:15:13.185Z,41.53
2019-02-18T07:17:40.672Z,37.83
2019-02-18T07:20:08.159Z,41.40
2019-02-18T07:22:35.629Z,41.50
2019-02-18T07:25:03.269Z,43.57
2019-02-18T07:27:30.715Z,42.07
2019-02-18T07:29:58.285Z,39.90
2019-02-18T07:32:25.739Z,42.17
2019-02-18T07:34:53.886Z,40.07
2019-02-18T07:37:21.391Z,40.50
2019-02-18T07:39:48.879Z,39.70
2019-02-18T07:42:16.451Z,40.57
2019-02-18T07:44:43.906Z,41.20
2019-02-18T07:47:11.418Z,38.93
2019-02-18T07:49:38.867Z,37.50
2019-02-18T07:52:06.391Z,36.83
2019-02-18T07:54:33.891Z,37.07
2019-02-18T07:57:01.367Z,34.00
2019-02-18T07:59:29.450Z,33.40
2019-02-18T08:01:56.928Z,33.73
2019-02-18T08:04:24.393Z,36.70
2019-02-18T08:06:51.890Z,36.63
2019-02-18T08:09:19.716Z,37.00
2019-02-18T08:11:47.236Z,36.70
2019-02-18T08:14:14.669Z,38.87
2019-02-18T08:16:43.063Z,37.20
2019-02-18T08:19:15.514Z,37.17
2019-02-18T08:21:42.434Z,36.27
2019-02-18T08:24:10.186Z,34.40
2019-02-18T08:29:33.100Z,32.90
2019-02-18T08:32:00.614Z,35.17
2019-02-18T08:34:28.069Z,35.27
2019-02-18T08:36:55.556Z,33.43
2019-02-18T08:39:23.032Z,34.43
2019-02-18T08:41:50.489Z,35.70
2019-02-18T08:44:18.275Z,32.53
2019-02-18T08:46:45.776Z,33.63
2019-02-18T08:52:09.041Z,32.80
2019-02-18T08:54:38.770Z,32.47
2019-02-18T08:57:06.862Z,32.60
2019-02-18T08:59:34.924Z,31.80
2019-02-18T09:02:02.577Z,32.10
2019-02-18T09:04:30.248Z,30.83
2019-02-18T09:06:57.884Z,32.33
2019-02-18T09:09:25.595Z,32.80
2019-02-18T09:11:53.249Z,30.83
2019-02-18T09:14:20.851Z,30.93
2019-02-18T09:16:48.568Z,28.50
2019-02-18T09:19:16.180Z,29.53
2019-02-18T09:21:43.919Z,28.27
2019-02-18T09:24:19.353Z,29.23
2019-02-18T09:26:47.074Z,29.60
2019-02-18T09:29:14.753Z,29.60
2019-02-18T09:31:43.005Z,30.13
2019-02-18T09:34:10.759Z,30.60
2019-02-18T09:36:38.549Z,29.57
2019-02-18T09:39:17.951Z,28.67
2019-02-18T09:41:45.836Z,29.93
2019-02-18T09:44:13.605Z,29.27
2019-02-18T09:46:41.211Z,27.73
2019-02-18T09:49:09.071Z,29.40
2019-02-18T09:51:36.866Z,28.33
2019-02-18T09:54:04.795Z,30.10
2019-02-18T09:56:32.406Z,28.60
2019-02-18T09:59:19.337Z,28.50
2019-02-18T10:01:46.787Z,31.07
2019-02-18T10:04:14.273Z,31.87
2019-02-18T10:06:41.705Z,30.70
2019-02-18T10:09:10.775Z,29.73
2019-02-18T10:11:38.230Z,31.77
2019-02-18T10:14:05.703Z,33.23
2019-02-18T10:16:33.166Z,32.40
2019-02-18T10:19:00.642Z,31.27
2019-02-18T10:21:28.095Z,32.10
2019-02-18T10:23:55.544Z,32.00
2019-02-18T10:26:23.025Z,33.73
2019-02-18T10:28:50.470Z,33.47
2019-02-18T10:31:17.949Z,34.70
2019-02-18T10:33:45.767Z,36.57
2019-02-18T10:36:13.239Z,36.57
2019-02-18T10:38:40.741Z,37.00
2019-02-18T10:41:08.221Z,36.70
2019-02-18T10:43:35.682Z,35.93
2019-02-18T10:46:03.124Z,35.70
2019-02-18T10:48:30.588Z,32.77
2019-02-18T10:50:58.077Z,34.93
2019-02-18T10:53:25.546Z,36.33
2019-02-18T10:55:53.019Z,34.00
2019-02-18T10:58:20.471Z,40.33
2019-02-18T11:00:48.087Z,42.67
2019-02-18T11:03:15.514Z,51.77
2019-02-18T11:05:42.972Z,48.48
2019-02-18T11:08:10.435Z,43.20
2019-02-18T11:10:38.400Z,41.77
2019-02-18T11:13:06.281Z,44.20
2019-02-18T11:15:33.713Z,43.20
2019-02-18T11:18:21.633Z,44.35
2019-02-18T11:20:49.137Z,45.43
2019-02-18T11:23:16.602Z,41.37
2019-02-18T11:25:44.517Z,44.70
2019-02-18T11:28:11.961Z,46.28
2019-02-18T11:30:39.422Z,55.33
2019-02-18T11:33:06.900Z,46.75
2019-02-18T11:35:34.371Z,46.90
2019-02-18T11:38:01.860Z,47.38
2019-02-18T11:40:29.400Z,46.25
2019-02-18T11:42:56.828Z,42.80
2019-02-18T11:45:24.263Z,40.60
2019-02-18T11:47:51.744Z,37.65
2019-02-18T11:50:19.236Z,39.55
2019-02-18T11:52:46.721Z,38.23
2019-02-18T11:55:14.291Z,37.90
2019-02-18T11:57:42.120Z,35.75
2019-02-18T12:00:10.441Z,34.65
2019-02-18T12:02:37.901Z,32.17
2019-02-18T12:05:06.091Z,32.20
2019-02-18T12:07:33.588Z,32.38
2019-02-18T12:10:01.154Z,30.35
2019-02-18T12:12:28.628Z,30.68
2019-02-18T12:14:56.500Z,29.65
2019-02-18T12:17:23.991Z,29.27
2019-02-18T12:19:51.475Z,28.70
2019-02-18T12:22:18.950Z,30.02
2019-02-18T12:24:46.393Z,27.85
2019-02-18T12:27:13.880Z,28.00
2019-02-18T12:29:41.351Z,29.15
2019-02-18T12:32:08.818Z,26.68
2019-02-18T12:34:36.502Z,27.27
2019-02-18T12:37:03.953Z,26.25
2019-02-18T12:39:31.416Z,26.70
2019-02-18T12:41:58.876Z,25.43
2019-02-18T12:44:27.561Z,26.37
2019-02-18T12:46:55.135Z,23.73
2019-02-18T12:49:22.582Z,24.12
2019-02-18T12:51:50.015Z,21.40
2019-02-18T12:54:17.492Z,21.52
2019-02-18T12:56:44.957Z,20.30
2019-02-18T12:59:12.415Z,20.70
2019-02-18T13:01:39.873Z,19.10
2019-02-18T13:04:07.448Z,18.35
2019-02-18T13:06:34.910Z,18.35
2019-02-18T13:09:04.075Z,17.85
2019-02-18T13:11:31.925Z,17.80
2019-02-18T13:13:59.385Z,17.80
2019-02-18T13:16:26.827Z,18.35
2019-02-18T13:18:54.587Z,16.02
2019-02-18T13:21:23.177Z,16.67
2019-02-18T13:23:50.731Z,15.03
2019-02-18T13:26:18.201Z,17.35
2019-02-18T13:28:46.155Z,16.67
2019-02-18T13:31:14.069Z,16.50
2019-02-18T13:33:41.694Z,14.40
2019-02-18T13:36:12.403Z,16.35
2019-02-18T13:38:40.105Z,16.00
2019-02-18T13:41:07.730Z,16.32
2019-02-18T13:43:35.255Z,16.42
2019-02-18T13:46:02.873Z,14.75
2019-02-18T13:48:30.744Z,14.55
2019-02-18T13:50:58.401Z,11.93
2019-02-18T13:53:25.991Z,11.55
2019-02-18T13:55:53.523Z,9.28
2019-02-18T13:58:21.093Z,13.13
2019-02-18T14:00:49.008Z,11.75
2019-02-18T14:03:16.579Z,8.75
2019-02-18T14:05:44.659Z,8.53
2019-02-18T14:08:12.211Z,8.58
2019-02-18T14:10:39.911Z,7.65
2019-02-18T14:13:07.582Z,9.08
2019-02-18T14:15:35.299Z,9.13
2019-02-18T14:18:03.345Z,9.58
2019-02-18T14:20:30.918Z,10.18
2019-02-18T14:22:58.777Z,9.55
2019-02-18T14:25:26.610Z,9.80
2019-02-18T14:27:54.139Z,9.58
2019-02-18T14:30:21.736Z,10.30
2019-02-18T14:32:49.403Z,10.63
2019-02-18T14:35:17.236Z,10.40
2019-02-18T14:37:45.310Z,10.25
2019-02-18T14:40:15.334Z,12.10
2019-02-18T14:42:42.922Z,11.05
2019-02-18T14:45:10.970Z,10.63
2019-02-18T14:47:38.673Z,10.55
2019-02-18T14:50:06.665Z,10.32
2019-02-18T14:52:34.310Z,10.85
2019-02-18T14:55:04.992Z,10.93
2019-02-18T14:57:33.266Z,11.33
2019-02-18T15:00:01.187Z,11.65
2019-02-18T15:02:28.759Z,10.90
2019-02-18T15:04:56.416Z,11.43
2019-02-18T15:07:24.084Z,10.72
2019-02-18T15:09:52.077Z,12.60
2019-02-18T15:12:20.338Z,12.05
2019-02-18T15:14:47.924Z,12.47
2019-02-18T15:17:15.641Z,12.18
2019-02-18T15:19:43.931Z,11.95
2019-02-18T15:22:11.595Z,10.60
2019-02-18T15:24:39.401Z,11.57
2019-02-18T15:27:07.271Z,11.75
2019-02-18T15:29:34.940Z,12.25
2019-02-18T15:32:03.028Z,12.47
2019-02-18T15:34:30.828Z,12.35
2019-02-18T15:36:58.416Z,12.43
2019-02-18T15:39:25.963Z,11.95
2019-02-18T15:41:54.209Z,12.73
2019-02-18T15:44:21.799Z,12.20
2019-02-18T15:46:49.375Z,11.73
2019-02-18T15:49:16.911Z,11.35
2019-02-18T15:51:44.695Z,11.95
2019-02-18T15:54:12.913Z,12.03
2019-02-18T15:56:41.108Z,12.23
2019-02-18T15:59:08.753Z,12.35
2019-02-18T16:01:36.711Z,12.95
2019-02-18T16:04:04.387Z,12.73
2019-02-18T16:06:31.892Z,12.93
2019-02-18T16:08:59.427Z,12.47
2019-02-18T16:11:26.958Z,12.70
2019-02-18T16:13:54.641Z,13.20
2019-02-18T16:16:23.053Z,12.37
2019-02-18T16:18:50.882Z,12.33
2019-02-18T16:21:18.493Z,14.35
2019-02-18T16:23:46.192Z,14.83
2019-02-18T16:26:13.781Z,14.15
2019-02-18T16:28:41.762Z,15.23
2019-02-18T16:31:11.103Z,14.45
2019-02-18T16:33:38.679Z,14.50
2019-02-18T16:36:06.135Z,14.05
2019-02-18T16:38:33.922Z,14.85
2019-02-18T16:41:01.453Z,14.60
2019-02-18T16:43:30.118Z,14.73
2019-02-18T16:45:57.833Z,14.15
2019-02-18T16:48:25.493Z,14.68
2019-02-18T16:50:53.007Z,14.65
2019-02-18T16:53:20.506Z,15.90
2019-02-18T16:55:48.148Z,15.32
2019-02-18T16:58:15.643Z,16.85
2019-02-18T17:00:43.567Z,17.23
2019-02-18T17:03:11.487Z,16.55
2019-02-18T17:05:39.455Z,18.00
2019-02-18T17:08:07.625Z,15.98
2019-02-18T17:10:35.545Z,18.02
2019-02-18T17:13:08.160Z,17.12
2019-02-18T17:15:36.212Z,16.95
2019-02-18T17:18:03.799Z,17.87
2019-02-18T17:20:31.541Z,18.30
2019-02-18T17:22:59.213Z,20.50
2019-02-18T17:25:27.592Z,20.93
2019-02-18T17:27:58.265Z,20.07
2019-02-18T17:30:26.076Z,18.87
2019-02-18T17:32:53.777Z,18.90
2019-02-18T17:35:22.020Z,19.67
2019-02-18T17:37:52.488Z,19.50
2019-02-18T17:40:20.705Z,20.10
2019-02-18T17:42:48.329Z,21.10
2019-02-18T17:45:15.895Z,20.97
2019-02-18T17:47:43.394Z,19.33
2019-02-18T17:50:12.521Z,19.97
2019-02-18T17:52:40.062Z,19.40
2019-02-18T17:55:08.860Z,20.23
2019-02-18T17:57:36.693Z,19.33
2019-02-18T18:00:05.132Z,21.27
2019-02-18T18:02:32.731Z,20.83
2019-02-18T18:05:00.637Z,21.50
2019-02-18T18:07:28.138Z,20.83
2019-02-18T18:09:55.652Z,20.93
2019-02-18T18:12:23.244Z,21.67
2019-02-18T18:14:51.988Z,21.17
2019-02-18T18:17:19.479Z,20.57
2019-02-18T18:19:47.321Z,20.60
2019-02-18T18:22:14.891Z,18.37
2019-02-18T18:24:42.363Z,20.27
2019-02-18T18:27:10.282Z,20.27
2019-02-18T18:29:37.762Z,19.07
2019-02-18T18:32:05.970Z,19.80
2019-02-18T18:34:33.481Z,20.50
2019-02-18T18:37:01.148Z,20.63
2019-02-18T18:39:28.899Z,20.73
2019-02-18T18:41:56.517Z,20.53
2019-02-18T18:44:23.991Z,22.57
2019-02-18T18:46:51.539Z,21.27
2019-02-18T18:49:19.247Z,20.43
2019-02-18T18:51:46.777Z,21.27
2019-02-18T18:54:14.431Z,20.50
2019-02-18T18:56:41.996Z,20.87
2019-02-18T18:59:09.540Z,19.70
2019-02-18T19:01:36.986Z,21.10
2019-02-18T19:04:07.297Z,21.50
2019-02-18T19:06:34.991Z,22.10
2019-02-18T19:09:04.121Z,20.43
2019-02-18T19:11:31.691Z,21.93
2019-02-18T19:13:59.280Z,23.03
2019-02-18T19:16:27.485Z,26.00
2019-02-18T19:18:55.044Z,24.17
2019-02-18T19:21:26.017Z,26.17
2019-02-18T19:23:53.853Z,23.73
2019-02-18T19:26:21.369Z,22.30
2019-02-18T19:28:52.498Z,19.77
2019-02-18T19:31:20.130Z,18.87
2019-02-18T19:33:47.676Z,18.73
2019-02-18T19:36:15.431Z,19.30
2019-02-18T19:38:43.413Z,19.03
2019-02-18T19:41:11.041Z,17.80
2019-02-18T19:43:38.668Z,18.60
2019-02-18T19:46:09.142Z,18.37
2019-02-18T19:48:36.935Z,18.80
2019-02-18T19:51:05.453Z,20.50
2019-02-18T19:53:33.506Z,17.87
2019-02-18T19:56:01.469Z,18.33
2019-02-18T19:58:29.566Z,19.90
2019-02-18T20:00:57.544Z,20.33
2019-02-18T20:03:25.209Z,19.97
2019-02-18T20:05:52.757Z,20.87
2019-02-18T20:08:20.405Z,22.03
2019-02-18T20:10:48.404Z,21.77
2019-02-18T20:13:15.876Z,19.33
2019-02-18T20:15:44.649Z,20.87
2019-02-18T20:18:13.796Z,20.03
2019-02-18T20:20:41.379Z,20.60
2019-02-18T20:23:09.290Z,20.63
2019-02-18T20:25:37.414Z,21.07
2019-02-18T20:28:05.215Z,20.90
2019-02-18T20:30:32.883Z,19.80
2019-02-18T20:33:00.495Z,20.27
2019-02-18T20:35:28.191Z,22.23
2019-02-18T20:37:55.764Z,25.13
2019-02-18T20:40:23.518Z,22.87
2019-02-18T20:42:51.100Z,23.43
2019-02-18T20:45:18.604Z,24.40
2019-02-18T20:47:46.120Z,22.40
2019-02-18T20:50:13.710Z,23.87
2019-02-18T20:52:41.247Z,23.10
2019-02-18T20:55:09.507Z,23.73
2019-02-18T20:57:37.204Z,23.37
2019-02-18T21:00:08.826Z,22.27
2019-02-18T21:02:36.342Z,22.70
2019-02-18T21:05:04.095Z,22.67
2019-02-18T21:07:31.635Z,20.17
2019-02-18T21:09:59.117Z,21.37
2019-02-18T21:12:28.508Z,21.10
2019-02-18T21:14:56.780Z,19.30
2019-02-18T21:17:25.143Z,22.27
2019-02-18T21:19:52.698Z,26.13
2019-02-18T21:22:20.219Z,24.73
2019-02-18T21:24:47.768Z,24.10
2019-02-18T21:27:15.315Z,26.17
2019-02-18T21:29:43.140Z,26.63
2019-02-18T21:32:10.626Z,26.03
2019-02-18T21:34:38.154Z,24.63
2019-02-18T21:37:05.785Z,25.70
2019-02-18T21:39:33.299Z,25.20
2019-02-18T21:42:00.868Z,25.70
2019-02-18T21:44:28.388Z,28.30
2019-02-18T21:46:56.191Z,25.60
2019-02-18T21:49:23.790Z,26.83
2019-02-18T21:51:51.620Z,26.07
2019-02-18T21:54:19.098Z,25.20
2019-02-18T21:56:46.624Z,25.30
2019-02-18T21:59:14.155Z,25.83
2019-02-18T22:01:41.774Z,24.83
2019-02-18T22:04:09.467Z,25.20
2019-02-18T22:06:36.995Z,26.20
2019-02-18T22:09:05.777Z,27.10
2019-02-18T22:11:35.926Z,27.53
2019-02-18T22:14:03.446Z,26.97
2019-02-18T22:16:30.933Z,25.97
2019-02-18T22:18:58.435Z,25.80
2019-02-18T22:21:26.106Z,26.70
2019-02-18T22:23:53.628Z,26.80
2019-02-18T22:26:21.337Z,27.97
2019-02-18T22:28:48.817Z,27.63
2019-02-18T22:31:17.330Z,26.03
2019-02-18T22:33:44.920Z,28.57
2019-02-18T22:36:12.464Z,26.83
2019-02-18T22:38:40.356Z,28.60
2019-02-18T22:41:09.466Z,27.97
2019-02-18T22:43:36.936Z,29.13
2019-02-18T22:46:04.428Z,27.47
2019-02-18T22:48:31.966Z,27.77
2019-02-18T22:50:59.472Z,26.57
2019-02-18T22:53:28.827Z,24.13
2019-02-18T22:55:57.584Z,22.43
2019-02-18T22:58:25.171Z,22.30
2019-02-18T23:00:54.804Z,24.57
2019-02-18T23:03:22.959Z,24.60
2019-02-18T23:05:50.894Z,22.90
2019-02-18T23:08:18.380Z,23.17
2019-02-18T23:10:45.904Z,22.67
2019-02-18T23:13:13.720Z,23.90
2019-02-18T23:15:41.249Z,22.37
2019-02-18T23:18:08.788Z,24.00
2019-02-18T23:20:36.287Z,22.67
2019-02-18T23:23:03.854Z,23.60
2019-02-18T23:25:31.336Z,24.40
2019-02-18T23:28:02.464Z,23.97
2019-02-18T23:30:29.959Z,24.50
2019-02-18T23:32:57.492Z,25.33
2019-02-18T23:35:24.984Z,27.27
2019-02-18T23:37:52.812Z,25.87
2019-02-18T23:40:20.374Z,28.03
2019-02-18T23:42:47.870Z,25.33
2019-02-18T23:45:15.415Z,30.13
2019-02-18T23:47:42.942Z,28.13
2019-02-18T23:50:10.502Z,27.50
2019-02-18T23:52:38.015Z,26.97
2019-02-18T23:55:05.563Z,27.13
2019-02-18T23:57:33.070Z,26.33
